sensor_id;sensor_type;location;lat;lon;timestamp;P1;durP1;ratioP1;P2;durP2;ratioP2
48524;SDS011;34316;51.514;-0.178;2023-11-18T00:01:22;1.08;;;0.70;;
48524;SDS011;34316;51.514;-0.178;2023-11-18T00:03:24;1.20;;;0.75;;
48524;SDS011;34316;51.514;-0.178;2023-11-18T00:05:26;0.98;;;0.70;;
48524;SDS011;34316;51.514;-0.178;2023-11-18T00:07:28;0.93;;;0.80;;
48524;SDS011;34316;51.514;-0.178;2023-11-18T00:09:31;0.93;;;0.70;;
48524;SDS011;34316;51.514;-0.178;2023-11-18T00:11:33;1.15;;;0.75;;
48524;SDS011;34316;51.514;-0.178;2023-11-18T00:13:35;1.15;;;0.70;;
48524;SDS011;34316;51.514;-0.178;2023-11-18T00:15:40;0.90;;;0.70;;
48524;SDS011;34316;51.514;-0.178;2023-11-18T00:17:44;1.30;;;0.80;;
48524;SDS011;34316;51.514;-0.178;2023-11-18T00:19:46;1.20;;;0.88;;
48524;SDS011;34316;51.514;-0.178;2023-11-18T00:21:49;0.90;;;0.70;;
48524;SDS011;34316;51.514;-0.178;2023-11-18T00:23:51;1.45;;;0.85;;
48524;SDS011;34316;51.514;-0.178;2023-11-18T00:25:52;0.95;;;0.65;;
48524;SDS011;34316;51.514;-0.178;2023-11-18T00:27:54;1.38;;;0.90;;
48524;SDS011;34316;51.514;-0.178;2023-11-18T00:29:57;1.30;;;0.80;;
48524;SDS011;34316;51.514;-0.178;2023-11-18T00:31:59;1.55;;;0.90;;
48524;SDS011;34316;51.514;-0.178;2023-11-18T00:34:03;1.08;;;0.73;;
48524;SDS011;34316;51.514;-0.178;2023-11-18T00:36:05;1.38;;;0.80;;
48524;SDS011;34316;51.514;-0.178;2023-11-18T00:38:08;1.40;;;0.90;;
48524;SDS011;34316;51.514;-0.178;2023-11-18T00:40:11;1.30;;;0.93;;
48524;SDS011;34316;51.514;-0.178;2023-11-18T00:42:13;1.30;;;0.90;;
48524;SDS011;34316;51.514;-0.178;2023-11-18T00:44:15;1.90;;;1.17;;
48524;SDS011;34316;51.514;-0.178;2023-11-18T00:46:17;2.70;;;1.02;;
48524;SDS011;34316;51.514;-0.178;2023-11-18T00:48:19;1.25;;;0.90;;
48524;SDS011;34316;51.514;-0.178;2023-11-18T00:50:21;1.45;;;1.00;;
48524;SDS011;34316;51.514;-0.178;2023-11-18T00:52:23;1.30;;;1.00;;
48524;SDS011;34316;51.514;-0.178;2023-11-18T00:54:26;1.17;;;0.90;;
48524;SDS011;34316;51.514;-0.178;2023-11-18T00:56:28;1.42;;;1.00;;
48524;SDS011;34316;51.514;-0.178;2023-11-18T00:58:30;1.23;;;0.90;;
48524;SDS011;34316;51.514;-0.178;2023-11-18T01:00:32;1.30;;;0.90;;
48524;SDS011;34316;51.514;-0.178;2023-11-18T01:02:35;1.50;;;0.90;;
48524;SDS011;34316;51.514;-0.178;2023-11-18T01:04:38;1.20;;;0.90;;
48524;SDS011;34316;51.514;-0.178;2023-11-18T01:06:41;1.05;;;0.93;;
48524;SDS011;34316;51.514;-0.178;2023-11-18T01:08:44;1.85;;;1.10;;
48524;SDS011;34316;51.514;-0.178;2023-11-18T01:10:46;1.25;;;1.00;;
48524;SDS011;34316;51.514;-0.178;2023-11-18T01:12:48;1.25;;;0.90;;
48524;SDS011;34316;51.514;-0.178;2023-11-18T01:14:50;1.30;;;0.90;;
48524;SDS011;34316;51.514;-0.178;2023-11-18T01:16:53;1.30;;;1.20;;
48524;SDS011;34316;51.514;-0.178;2023-11-18T01:18:55;1.73;;;1.20;;
48524;SDS011;34316;51.514;-0.178;2023-11-18T01:20:56;1.83;;;1.38;;
48524;SDS011;34316;51.514;-0.178;2023-11-18T01:23:02;1.80;;;1.40;;
48524;SDS011;34316;51.514;-0.178;2023-11-18T01:25:05;1.60;;;1.27;;
48524;SDS011;34316;51.514;-0.178;2023-11-18T01:27:07;1.67;;;1.10;;
48524;SDS011;34316;51.514;-0.178;2023-11-18T01:29:11;2.00;;;1.48;;
48524;SDS011;34316;51.514;-0.178;2023-11-18T01:31:13;1.63;;;1.30;;
48524;SDS011;34316;51.514;-0.178;2023-11-18T01:33:14;1.58;;;1.20;;
48524;SDS011;34316;51.514;-0.178;2023-11-18T01:35:16;1.83;;;1.33;;
48524;SDS011;34316;51.514;-0.178;2023-11-18T01:37:21;1.75;;;1.50;;
48524;SDS011;34316;51.514;-0.178;2023-11-18T01:39:24;1.90;;;1.55;;
48524;SDS011;34316;51.514;-0.178;2023-11-18T01:41:28;1.90;;;1.70;;
48524;SDS011;34316;51.514;-0.178;2023-11-18T01:43:33;1.58;;;1.40;;
48524;SDS011;34316;51.514;-0.178;2023-11-18T01:45:36;2.00;;;1.40;;
48524;SDS011;34316;51.514;-0.178;2023-11-18T01:47:38;2.03;;;1.60;;
48524;SDS011;34316;51.514;-0.178;2023-11-18T01:49:42;1.60;;;1.20;;
48524;SDS011;34316;51.514;-0.178;2023-11-18T01:53:48;1.80;;;1.40;;
48524;SDS011;34316;51.514;-0.178;2023-11-18T01:55:51;2.53;;;1.50;;
48524;SDS011;34316;51.514;-0.178;2023-11-18T01:57:53;1.80;;;1.40;;
48524;SDS011;34316;51.514;-0.178;2023-11-18T01:59:58;1.55;;;1.25;;
48524;SDS011;34316;51.514;-0.178;2023-11-18T02:02:00;1.50;;;1.30;;
48524;SDS011;34316;51.514;-0.178;2023-11-18T02:04:04;1.70;;;1.40;;
48524;SDS011;34316;51.514;-0.178;2023-11-18T02:06:09;1.90;;;1.60;;
48524;SDS011;34316;51.514;-0.178;2023-11-18T02:08:13;3.38;;;1.30;;
48524;SDS011;34316;51.514;-0.178;2023-11-18T02:10:16;3.85;;;1.42;;
48524;SDS011;34316;51.514;-0.178;2023-11-18T02:14:41;2.20;;;1.67;;
48524;SDS011;34316;51.514;-0.178;2023-11-18T02:16:44;1.70;;;1.48;;
48524;SDS011;34316;51.514;-0.178;2023-11-18T02:18:47;2.13;;;1.50;;
48524;SDS011;34316;51.514;-0.178;2023-11-18T02:20:50;1.92;;;1.50;;
48524;SDS011;34316;51.514;-0.178;2023-11-18T02:22:53;1.90;;;1.50;;
48524;SDS011;34316;51.514;-0.178;2023-11-18T02:24:56;2.25;;;1.65;;
48524;SDS011;34316;51.514;-0.178;2023-11-18T02:26:58;1.88;;;1.42;;
48524;SDS011;34316;51.514;-0.178;2023-11-18T02:29:01;2.42;;;1.80;;
48524;SDS011;34316;51.514;-0.178;2023-11-18T02:31:05;2.03;;;1.80;;
48524;SDS011;34316;51.514;-0.178;2023-11-18T02:33:14;2.20;;;1.95;;
48524;SDS011;34316;51.514;-0.178;2023-11-18T02:35:23;2.08;;;1.88;;
48524;SDS011;34316;51.514;-0.178;2023-11-18T02:37:27;2.35;;;2.13;;
48524;SDS011;34316;51.514;-0.178;2023-11-18T02:41:42;2.00;;;1.80;;
48524;SDS011;34316;51.514;-0.178;2023-11-18T02:43:46;2.35;;;1.75;;
48524;SDS011;34316;51.514;-0.178;2023-11-18T02:45:48;2.20;;;2.00;;
48524;SDS011;34316;51.514;-0.178;2023-11-18T02:47:51;2.45;;;2.10;;
48524;SDS011;34316;51.514;-0.178;2023-11-18T02:49:54;2.40;;;2.20;;
48524;SDS011;34316;51.514;-0.178;2023-11-18T02:51:57;2.50;;;2.20;;
48524;SDS011;34316;51.514;-0.178;2023-11-18T02:53:59;2.47;;;2.22;;
48524;SDS011;34316;51.514;-0.178;2023-11-18T02:56:01;2.80;;;2.08;;
48524;SDS011;34316;51.514;-0.178;2023-11-18T02:58:06;2.72;;;2.50;;
48524;SDS011;34316;51.514;-0.178;2023-11-18T03:00:09;2.78;;;2.33;;
48524;SDS011;34316;51.514;-0.178;2023-11-18T03:02:20;2.85;;;2.55;;
48524;SDS011;34316;51.514;-0.178;2023-11-18T03:04:22;2.75;;;2.53;;
48524;SDS011;34316;51.514;-0.178;2023-11-18T03:06:25;2.70;;;2.38;;
48524;SDS011;34316;51.514;-0.178;2023-11-18T03:08:27;3.00;;;2.58;;
48524;SDS011;34316;51.514;-0.178;2023-11-18T03:10:31;2.70;;;2.50;;
48524;SDS011;34316;51.514;-0.178;2023-11-18T03:12:37;3.17;;;2.58;;
48524;SDS011;34316;51.514;-0.178;2023-11-18T03:14:39;2.78;;;2.42;;
48524;SDS011;34316;51.514;-0.178;2023-11-18T03:16:41;3.40;;;2.90;;
48524;SDS011;34316;51.514;-0.178;2023-11-18T03:18:43;3.35;;;2.40;;
48524;SDS011;34316;51.514;-0.178;2023-11-18T03:20:45;3.80;;;2.90;;
48524;SDS011;34316;51.514;-0.178;2023-11-18T03:22:48;2.95;;;2.50;;
48524;SDS011;34316;51.514;-0.178;2023-11-18T03:24:51;3.33;;;2.72;;
48524;SDS011;34316;51.514;-0.178;2023-11-18T03:26:53;3.42;;;2.50;;
48524;SDS011;34316;51.514;-0.178;2023-11-18T03:28:55;2.97;;;2.60;;
48524;SDS011;34316;51.514;-0.178;2023-11-18T03:30:58;3.53;;;2.63;;
48524;SDS011;34316;51.514;-0.178;2023-11-18T03:33:00;3.00;;;2.55;;
48524;SDS011;34316;51.514;-0.178;2023-11-18T03:35:06;3.35;;;3.05;;
48524;SDS011;34316;51.514;-0.178;2023-11-18T03:37:11;2.92;;;2.50;;
48524;SDS011;34316;51.514;-0.178;2023-11-18T03:39:13;2.65;;;2.30;;
48524;SDS011;34316;51.514;-0.178;2023-11-18T03:41:18;3.22;;;2.70;;
48524;SDS011;34316;51.514;-0.178;2023-11-18T03:43:20;4.38;;;2.50;;
48524;SDS011;34316;51.514;-0.178;2023-11-18T03:45:27;4.70;;;3.05;;
48524;SDS011;34316;51.514;-0.178;2023-11-18T03:47:28;4.07;;;2.50;;
48524;SDS011;34316;51.514;-0.178;2023-11-18T03:49:31;3.97;;;2.60;;
48524;SDS011;34316;51.514;-0.178;2023-11-18T03:51:33;4.53;;;2.95;;
48524;SDS011;34316;51.514;-0.178;2023-11-18T03:53:35;3.80;;;2.70;;
48524;SDS011;34316;51.514;-0.178;2023-11-18T03:55:37;2.88;;;2.58;;
48524;SDS011;34316;51.514;-0.178;2023-11-18T03:57:39;3.35;;;2.63;;
48524;SDS011;34316;51.514;-0.178;2023-11-18T03:59:41;3.35;;;2.97;;
48524;SDS011;34316;51.514;-0.178;2023-11-18T04:01:43;3.25;;;2.50;;
48524;SDS011;34316;51.514;-0.178;2023-11-18T04:03:45;3.95;;;3.22;;
48524;SDS011;34316;51.514;-0.178;2023-11-18T04:05:47;3.30;;;3.00;;
48524;SDS011;34316;51.514;-0.178;2023-11-18T04:07:49;4.15;;;2.90;;
48524;SDS011;34316;51.514;-0.178;2023-11-18T04:09:51;3.40;;;2.72;;
48524;SDS011;34316;51.514;-0.178;2023-11-18T04:11:54;6.93;;;3.00;;
48524;SDS011;34316;51.514;-0.178;2023-11-18T04:13:56;3.40;;;3.10;;
48524;SDS011;34316;51.514;-0.178;2023-11-18T04:15:58;4.10;;;3.40;;
48524;SDS011;34316;51.514;-0.178;2023-11-18T04:18:01;3.50;;;3.15;;
48524;SDS011;34316;51.514;-0.178;2023-11-18T04:20:03;3.17;;;2.88;;
48524;SDS011;34316;51.514;-0.178;2023-11-18T04:22:10;3.80;;;3.20;;
48524;SDS011;34316;51.514;-0.178;2023-11-18T04:24:12;3.65;;;3.08;;
48524;SDS011;34316;51.514;-0.178;2023-11-18T04:26:13;3.67;;;3.00;;
48524;SDS011;34316;51.514;-0.178;2023-11-18T04:28:15;4.00;;;2.83;;
48524;SDS011;34316;51.514;-0.178;2023-11-18T04:30:17;3.50;;;2.90;;
48524;SDS011;34316;51.514;-0.178;2023-11-18T04:32:19;3.50;;;3.13;;
48524;SDS011;34316;51.514;-0.178;2023-11-18T04:34:21;3.65;;;3.30;;
48524;SDS011;34316;51.514;-0.178;2023-11-18T04:36:23;3.20;;;2.90;;
48524;SDS011;34316;51.514;-0.178;2023-11-18T04:38:25;7.03;;;2.70;;
48524;SDS011;34316;51.514;-0.178;2023-11-18T04:40:27;3.33;;;2.95;;
48524;SDS011;34316;51.514;-0.178;2023-11-18T04:42:29;3.10;;;2.80;;
48524;SDS011;34316;51.514;-0.178;2023-11-18T04:44:31;3.10;;;2.80;;
48524;SDS011;34316;51.514;-0.178;2023-11-18T04:46:33;3.17;;;2.88;;
48524;SDS011;34316;51.514;-0.178;2023-11-18T04:48:35;3.47;;;2.60;;
48524;SDS011;34316;51.514;-0.178;2023-11-18T04:50:42;5.05;;;2.80;;
48524;SDS011;34316;51.514;-0.178;2023-11-18T04:52:44;4.90;;;2.90;;
48524;SDS011;34316;51.514;-0.178;2023-11-18T04:54:46;3.28;;;2.97;;
48524;SDS011;34316;51.514;-0.178;2023-11-18T04:56:49;2.63;;;2.35;;
48524;SDS011;34316;51.514;-0.178;2023-11-18T04:58:51;3.67;;;2.45;;
48524;SDS011;34316;51.514;-0.178;2023-11-18T05:00:55;3.08;;;2.58;;
48524;SDS011;34316;51.514;-0.178;2023-11-18T05:02:57;4.00;;;2.60;;
48524;SDS011;34316;51.514;-0.178;2023-11-18T05:04:59;4.40;;;2.72;;
48524;SDS011;34316;51.514;-0.178;2023-11-18T05:07:02;3.22;;;2.78;;
48524;SDS011;34316;51.514;-0.178;2023-11-18T05:09:04;2.90;;;2.38;;
48524;SDS011;34316;51.514;-0.178;2023-11-18T05:11:09;4.47;;;2.65;;
48524;SDS011;34316;51.514;-0.178;2023-11-18T05:13:11;3.70;;;2.58;;
48524;SDS011;34316;51.514;-0.178;2023-11-18T05:15:16;2.58;;;2.20;;
48524;SDS011;34316;51.514;-0.178;2023-11-18T05:17:19;2.88;;;2.28;;
48524;SDS011;34316;51.514;-0.178;2023-11-18T05:19:21;3.75;;;2.38;;
48524;SDS011;34316;51.514;-0.178;2023-11-18T05:21:22;2.30;;;2.10;;
48524;SDS011;34316;51.514;-0.178;2023-11-18T05:23:24;3.47;;;2.40;;
48524;SDS011;34316;51.514;-0.178;2023-11-18T05:25:26;2.40;;;2.17;;
48524;SDS011;34316;51.514;-0.178;2023-11-18T05:27:29;2.90;;;2.25;;
48524;SDS011;34316;51.514;-0.178;2023-11-18T05:29:31;2.60;;;2.20;;
48524;SDS011;34316;51.514;-0.178;2023-11-18T05:31:34;2.80;;;1.90;;
48524;SDS011;34316;51.514;-0.178;2023-11-18T05:33:36;2.30;;;1.70;;
48524;SDS011;34316;51.514;-0.178;2023-11-18T05:35:38;2.05;;;1.75;;
48524;SDS011;34316;51.514;-0.178;2023-11-18T05:37:43;2.55;;;1.75;;
48524;SDS011;34316;51.514;-0.178;2023-11-18T05:39:46;1.90;;;1.65;;
48524;SDS011;34316;51.514;-0.178;2023-11-18T05:41:50;1.63;;;1.40;;
48524;SDS011;34316;51.514;-0.178;2023-11-18T05:43:52;2.10;;;1.50;;
48524;SDS011;34316;51.514;-0.178;2023-11-18T05:45:58;2.10;;;1.67;;
48524;SDS011;34316;51.514;-0.178;2023-11-18T05:48:29;1.88;;;1.45;;
48524;SDS011;34316;51.514;-0.178;2023-11-18T05:50:30;2.10;;;1.70;;
48524;SDS011;34316;51.514;-0.178;2023-11-18T05:52:32;2.92;;;1.70;;
48524;SDS011;34316;51.514;-0.178;2023-11-18T05:54:35;2.60;;;1.67;;
48524;SDS011;34316;51.514;-0.178;2023-11-18T05:56:37;2.40;;;1.70;;
48524;SDS011;34316;51.514;-0.178;2023-11-18T05:58:39;1.77;;;1.30;;
48524;SDS011;34316;51.514;-0.178;2023-11-18T06:00:41;2.28;;;1.70;;
48524;SDS011;34316;51.514;-0.178;2023-11-18T06:02:43;2.35;;;1.38;;
48524;SDS011;34316;51.514;-0.178;2023-11-18T06:04:46;2.42;;;1.38;;
48524;SDS011;34316;51.514;-0.178;2023-11-18T06:06:48;2.47;;;1.38;;
48524;SDS011;34316;51.514;-0.178;2023-11-18T06:08:51;2.00;;;1.48;;
48524;SDS011;34316;51.514;-0.178;2023-11-18T06:10:53;2.15;;;1.40;;
48524;SDS011;34316;51.514;-0.178;2023-11-18T06:12:58;1.67;;;1.30;;
48524;SDS011;34316;51.514;-0.178;2023-11-18T06:15:00;1.77;;;1.10;;
48524;SDS011;34316;51.514;-0.178;2023-11-18T06:17:02;1.70;;;1.20;;
48524;SDS011;34316;51.514;-0.178;2023-11-18T06:19:04;2.17;;;1.50;;
48524;SDS011;34316;51.514;-0.178;2023-11-18T06:21:07;2.13;;;1.33;;
48524;SDS011;34316;51.514;-0.178;2023-11-18T06:23:10;1.45;;;1.23;;
48524;SDS011;34316;51.514;-0.178;2023-11-18T06:25:12;1.95;;;1.38;;
48524;SDS011;34316;51.514;-0.178;2023-11-18T06:27:14;1.70;;;1.20;;
48524;SDS011;34316;51.514;-0.178;2023-11-18T06:29:17;2.80;;;1.40;;
48524;SDS011;34316;51.514;-0.178;2023-11-18T06:31:20;2.15;;;1.23;;
48524;SDS011;34316;51.514;-0.178;2023-11-18T06:33:23;1.98;;;1.33;;
48524;SDS011;34316;51.514;-0.178;2023-11-18T06:35:28;1.95;;;1.20;;
48524;SDS011;34316;51.514;-0.178;2023-11-18T06:37:34;3.25;;;1.30;;
48524;SDS011;34316;51.514;-0.178;2023-11-18T06:39:40;2.40;;;1.30;;
48524;SDS011;34316;51.514;-0.178;2023-11-18T06:41:45;1.50;;;1.20;;
48524;SDS011;34316;51.514;-0.178;2023-11-18T06:43:51;1.67;;;1.20;;
48524;SDS011;34316;51.514;-0.178;2023-11-18T06:45:59;2.63;;;1.40;;
48524;SDS011;34316;51.514;-0.178;2023-11-18T06:48:01;1.67;;;1.10;;
48524;SDS011;34316;51.514;-0.178;2023-11-18T06:50:03;1.70;;;1.10;;
48524;SDS011;34316;51.514;-0.178;2023-11-18T06:52:05;2.63;;;1.20;;
48524;SDS011;34316;51.514;-0.178;2023-11-18T06:54:08;1.80;;;1.10;;
48524;SDS011;34316;51.514;-0.178;2023-11-18T06:56:12;2.60;;;1.15;;
48524;SDS011;34316;51.514;-0.178;2023-11-18T06:58:15;1.40;;;1.00;;
48524;SDS011;34316;51.514;-0.178;2023-11-18T07:00:17;1.42;;;1.02;;
48524;SDS011;34316;51.514;-0.178;2023-11-18T07:02:19;2.50;;;1.05;;
48524;SDS011;34316;51.514;-0.178;2023-11-18T07:04:22;2.05;;;1.60;;
48524;SDS011;34316;51.514;-0.178;2023-11-18T07:06:25;3.53;;;1.70;;
48524;SDS011;34316;51.514;-0.178;2023-11-18T07:08:28;3.63;;;1.30;;
48524;SDS011;34316;51.514;-0.178;2023-11-18T07:10:30;2.20;;;1.40;;
48524;SDS011;34316;51.514;-0.178;2023-11-18T07:12:32;1.52;;;0.95;;
48524;SDS011;34316;51.514;-0.178;2023-11-18T07:14:39;3.70;;;1.55;;
48524;SDS011;34316;51.514;-0.178;2023-11-18T07:16:42;2.30;;;1.42;;
48524;SDS011;34316;51.514;-0.178;2023-11-18T07:18:44;3.42;;;1.00;;
48524;SDS011;34316;51.514;-0.178;2023-11-18T07:20:47;2.00;;;1.15;;
48524;SDS011;34316;51.514;-0.178;2023-11-18T07:22:51;2.42;;;1.45;;
48524;SDS011;34316;51.514;-0.178;2023-11-18T07:24:52;5.57;;;1.70;;
48524;SDS011;34316;51.514;-0.178;2023-11-18T07:26:54;3.70;;;1.30;;
48524;SDS011;34316;51.514;-0.178;2023-11-18T07:28:56;2.10;;;1.40;;
48524;SDS011;34316;51.514;-0.178;2023-11-18T07:30:58;2.45;;;1.40;;
48524;SDS011;34316;51.514;-0.178;2023-11-18T07:33:01;3.47;;;1.60;;
48524;SDS011;34316;51.514;-0.178;2023-11-18T07:35:04;2.17;;;1.30;;
48524;SDS011;34316;51.514;-0.178;2023-11-18T07:37:11;3.65;;;1.15;;
48524;SDS011;34316;51.514;-0.178;2023-11-18T07:39:14;3.45;;;1.92;;
48524;SDS011;34316;51.514;-0.178;2023-11-18T07:41:26;2.92;;;1.67;;
48524;SDS011;34316;51.514;-0.178;2023-11-18T07:43:34;2.72;;;1.52;;
48524;SDS011;34316;51.514;-0.178;2023-11-18T07:45:38;2.10;;;1.25;;
48524;SDS011;34316;51.514;-0.178;2023-11-18T07:47:41;3.50;;;1.73;;
48524;SDS011;34316;51.514;-0.178;2023-11-18T07:49:43;3.15;;;1.77;;
48524;SDS011;34316;51.514;-0.178;2023-11-18T07:51:46;3.47;;;2.03;;
48524;SDS011;34316;51.514;-0.178;2023-11-18T07:53:49;3.08;;;1.33;;
48524;SDS011;34316;51.514;-0.178;2023-11-18T07:55:51;2.33;;;1.40;;
48524;SDS011;34316;51.514;-0.178;2023-11-18T07:57:53;2.53;;;1.40;;
48524;SDS011;34316;51.514;-0.178;2023-11-18T07:59:55;2.72;;;1.60;;
48524;SDS011;34316;51.514;-0.178;2023-11-18T08:01:58;1.70;;;1.10;;
48524;SDS011;34316;51.514;-0.178;2023-11-18T08:03:59;2.15;;;1.30;;
48524;SDS011;34316;51.514;-0.178;2023-11-18T08:06:01;2.30;;;1.30;;
48524;SDS011;34316;51.514;-0.178;2023-11-18T08:08:04;2.55;;;1.65;;
48524;SDS011;34316;51.514;-0.178;2023-11-18T08:10:06;2.08;;;1.30;;
48524;SDS011;34316;51.514;-0.178;2023-11-18T08:12:08;3.60;;;1.38;;
48524;SDS011;34316;51.514;-0.178;2023-11-18T08:14:12;4.38;;;1.15;;
48524;SDS011;34316;51.514;-0.178;2023-11-18T08:16:15;3.75;;;1.70;;
48524;SDS011;34316;51.514;-0.178;2023-11-18T08:18:17;4.47;;;1.52;;
48524;SDS011;34316;51.514;-0.178;2023-11-18T08:20:20;1.67;;;1.10;;
48524;SDS011;34316;51.514;-0.178;2023-11-18T08:22:26;2.33;;;1.25;;
48524;SDS011;34316;51.514;-0.178;2023-11-18T08:24:28;3.50;;;1.58;;
48524;SDS011;34316;51.514;-0.178;2023-11-18T08:26:30;2.08;;;1.30;;
48524;SDS011;34316;51.514;-0.178;2023-11-18T08:28:32;3.45;;;1.23;;
48524;SDS011;34316;51.514;-0.178;2023-11-18T08:30:34;2.38;;;1.20;;
48524;SDS011;34316;51.514;-0.178;2023-11-18T08:32:39;2.03;;;1.20;;
48524;SDS011;34316;51.514;-0.178;2023-11-18T08:34:42;1.92;;;1.17;;
48524;SDS011;34316;51.514;-0.178;2023-11-18T08:36:46;2.53;;;1.50;;
48524;SDS011;34316;51.514;-0.178;2023-11-18T08:38:48;4.38;;;1.20;;
48524;SDS011;34316;51.514;-0.178;2023-11-18T08:40:50;2.40;;;1.40;;
48524;SDS011;34316;51.514;-0.178;2023-11-18T08:42:53;1.65;;;1.02;;
48524;SDS011;34316;51.514;-0.178;2023-11-18T08:44:57;2.53;;;1.40;;
48524;SDS011;34316;51.514;-0.178;2023-11-18T08:47:04;3.00;;;1.40;;
48524;SDS011;34316;51.514;-0.178;2023-11-18T08:49:10;1.42;;;0.98;;
48524;SDS011;34316;51.514;-0.178;2023-11-18T08:51:12;1.50;;;1.10;;
48524;SDS011;34316;51.514;-0.178;2023-11-18T08:53:15;10.45;;;1.50;;
48524;SDS011;34316;51.514;-0.178;2023-11-18T08:55:20;3.88;;;1.23;;
48524;SDS011;34316;51.514;-0.178;2023-11-18T08:57:22;2.35;;;1.50;;
48524;SDS011;34316;51.514;-0.178;2023-11-18T08:59:27;2.38;;;1.42;;
48524;SDS011;34316;51.514;-0.178;2023-11-18T09:01:29;2.00;;;1.20;;
48524;SDS011;34316;51.514;-0.178;2023-11-18T09:03:33;2.35;;;1.20;;
48524;SDS011;34316;51.514;-0.178;2023-11-18T09:05:36;2.72;;;1.67;;
48524;SDS011;34316;51.514;-0.178;2023-11-18T09:07:39;2.28;;;1.50;;
48524;SDS011;34316;51.514;-0.178;2023-11-18T09:09:46;2.33;;;1.52;;
48524;SDS011;34316;51.514;-0.178;2023-11-18T09:11:52;3.05;;;2.03;;
48524;SDS011;34316;51.514;-0.178;2023-11-18T09:14:00;2.42;;;1.63;;
48524;SDS011;34316;51.514;-0.178;2023-11-18T09:16:06;2.95;;;1.90;;
48524;SDS011;34316;51.514;-0.178;2023-11-18T09:18:11;2.67;;;1.80;;
48524;SDS011;34316;51.514;-0.178;2023-11-18T09:20:13;2.90;;;1.90;;
48524;SDS011;34316;51.514;-0.178;2023-11-18T09:22:19;3.80;;;1.77;;
48524;SDS011;34316;51.514;-0.178;2023-11-18T09:24:21;3.55;;;1.75;;
48524;SDS011;34316;51.514;-0.178;2023-11-18T09:26:26;1.90;;;1.48;;
48524;SDS011;34316;51.514;-0.178;2023-11-18T09:28:34;2.88;;;1.85;;
48524;SDS011;34316;51.514;-0.178;2023-11-18T09:30:37;3.58;;;2.20;;
48524;SDS011;34316;51.514;-0.178;2023-11-18T09:32:40;2.65;;;1.80;;
48524;SDS011;34316;51.514;-0.178;2023-11-18T09:34:49;4.75;;;1.88;;
48524;SDS011;34316;51.514;-0.178;2023-11-18T09:36:51;2.30;;;1.50;;
48524;SDS011;34316;51.514;-0.178;2023-11-18T09:38:52;3.25;;;1.50;;
48524;SDS011;34316;51.514;-0.178;2023-11-18T09:40:58;2.80;;;1.92;;
48524;SDS011;34316;51.514;-0.178;2023-11-18T09:43:12;2.33;;;1.60;;
48524;SDS011;34316;51.514;-0.178;2023-11-18T09:45:17;2.50;;;1.75;;
48524;SDS011;34316;51.514;-0.178;2023-11-18T09:49:26;2.42;;;1.63;;
48524;SDS011;34316;51.514;-0.178;2023-11-18T09:51:37;2.20;;;1.48;;
48524;SDS011;34316;51.514;-0.178;2023-11-18T09:53:40;3.35;;;1.80;;
48524;SDS011;34316;51.514;-0.178;2023-11-18T09:55:56;3.17;;;1.40;;
48524;SDS011;34316;51.514;-0.178;2023-11-18T09:58:03;2.85;;;1.75;;
48524;SDS011;34316;51.514;-0.178;2023-11-18T10:00:14;2.42;;;1.80;;
48524;SDS011;34316;51.514;-0.178;2023-11-18T10:02:37;3.13;;;1.33;;
48524;SDS011;34316;51.514;-0.178;2023-11-18T10:04:45;2.13;;;1.48;;
48524;SDS011;34316;51.514;-0.178;2023-11-18T10:06:49;2.53;;;1.55;;
48524;SDS011;34316;51.514;-0.178;2023-11-18T10:08:56;3.03;;;1.70;;
48524;SDS011;34316;51.514;-0.178;2023-11-18T10:10:58;2.10;;;1.48;;
48524;SDS011;34316;51.514;-0.178;2023-11-18T10:13:10;2.22;;;1.40;;
48524;SDS011;34316;51.514;-0.178;2023-11-18T10:15:24;3.22;;;2.20;;
48524;SDS011;34316;51.514;-0.178;2023-11-18T10:17:27;5.88;;;2.13;;
48524;SDS011;34316;51.514;-0.178;2023-11-18T10:21:57;2.53;;;1.60;;
48524;SDS011;34316;51.514;-0.178;2023-11-18T10:24:02;2.78;;;1.60;;
48524;SDS011;34316;51.514;-0.178;2023-11-18T10:26:04;2.03;;;1.40;;
48524;SDS011;34316;51.514;-0.178;2023-11-18T10:28:07;2.33;;;1.50;;
48524;SDS011;34316;51.514;-0.178;2023-11-18T10:30:12;3.35;;;1.52;;
48524;SDS011;34316;51.514;-0.178;2023-11-18T10:32:20;1.83;;;1.35;;
48524;SDS011;34316;51.514;-0.178;2023-11-18T10:34:23;4.37;;;2.33;;
48524;SDS011;34316;51.514;-0.178;2023-11-18T10:36:38;2.65;;;1.65;;
48524;SDS011;34316;51.514;-0.178;2023-11-18T10:38:40;2.75;;;1.63;;
48524;SDS011;34316;51.514;-0.178;2023-11-18T10:40:55;3.00;;;1.77;;
48524;SDS011;34316;51.514;-0.178;2023-11-18T10:42:58;2.17;;;1.30;;
48524;SDS011;34316;51.514;-0.178;2023-11-18T10:45:01;2.28;;;1.48;;
48524;SDS011;34316;51.514;-0.178;2023-11-18T10:47:04;2.03;;;1.40;;
48524;SDS011;34316;51.514;-0.178;2023-11-18T10:49:06;2.13;;;1.40;;
48524;SDS011;34316;51.514;-0.178;2023-11-18T10:51:12;3.00;;;1.42;;
48524;SDS011;34316;51.514;-0.178;2023-11-18T10:53:16;2.67;;;1.30;;
48524;SDS011;34316;51.514;-0.178;2023-11-18T10:55:19;3.60;;;1.40;;
48524;SDS011;34316;51.514;-0.178;2023-11-18T10:57:21;1.95;;;1.23;;
48524;SDS011;34316;51.514;-0.178;2023-11-18T10:59:25;1.92;;;1.20;;
48524;SDS011;34316;51.514;-0.178;2023-11-18T11:01:37;2.03;;;1.30;;
48524;SDS011;34316;51.514;-0.178;2023-11-18T11:03:52;2.80;;;1.45;;
48524;SDS011;34316;51.514;-0.178;2023-11-18T11:05:57;1.98;;;1.40;;
48524;SDS011;34316;51.514;-0.178;2023-11-18T11:08:02;3.13;;;1.92;;
48524;SDS011;34316;51.514;-0.178;2023-11-18T11:10:07;2.15;;;1.42;;
48524;SDS011;34316;51.514;-0.178;2023-11-18T11:12:10;3.35;;;2.17;;
48524;SDS011;34316;51.514;-0.178;2023-11-18T11:14:25;2.00;;;1.30;;
48524;SDS011;34316;51.514;-0.178;2023-11-18T11:16:41;2.05;;;1.48;;
48524;SDS011;34316;51.514;-0.178;2023-11-18T11:18:47;5.38;;;2.67;;
48524;SDS011;34316;51.514;-0.178;2023-11-18T11:20:59;7.80;;;2.95;;
48524;SDS011;34316;51.514;-0.178;2023-11-18T11:28:22;4.18;;;1.42;;
48524;SDS011;34316;51.514;-0.178;2023-11-18T11:30:27;2.60;;;1.55;;
48524;SDS011;34316;51.514;-0.178;2023-11-18T11:32:44;2.17;;;1.40;;
48524;SDS011;34316;51.514;-0.178;2023-11-18T11:34:54;2.08;;;1.40;;
48524;SDS011;34316;51.514;-0.178;2023-11-18T11:37:09;4.28;;;1.45;;
48524;SDS011;34316;51.514;-0.178;2023-11-18T11:39:13;3.67;;;1.73;;
48524;SDS011;34316;51.514;-0.178;2023-11-18T11:41:22;7.30;;;1.70;;
48524;SDS011;34316;51.514;-0.178;2023-11-18T11:43:28;1.88;;;1.27;;
48524;SDS011;34316;51.514;-0.178;2023-11-18T11:45:31;2.78;;;1.67;;
48524;SDS011;34316;51.514;-0.178;2023-11-18T11:47:33;2.88;;;1.63;;
48524;SDS011;34316;51.514;-0.178;2023-11-18T11:49:43;2.70;;;1.45;;
48524;SDS011;34316;51.514;-0.178;2023-11-18T11:54:07;2.20;;;1.48;;
48524;SDS011;34316;51.514;-0.178;2023-11-18T11:56:17;2.28;;;1.50;;
48524;SDS011;34316;51.514;-0.178;2023-11-18T11:58:29;2.75;;;1.38;;
48524;SDS011;34316;51.514;-0.178;2023-11-18T12:00:35;2.85;;;1.20;;
48524;SDS011;34316;51.514;-0.178;2023-11-18T12:02:37;3.10;;;1.70;;
48524;SDS011;34316;51.514;-0.178;2023-11-18T12:04:45;2.58;;;1.45;;
48524;SDS011;34316;51.514;-0.178;2023-11-18T12:06:48;4.20;;;1.85;;
48524;SDS011;34316;51.514;-0.178;2023-11-18T12:09:06;2.47;;;1.33;;
48524;SDS011;34316;51.514;-0.178;2023-11-18T12:11:10;3.22;;;1.55;;
48524;SDS011;34316;51.514;-0.178;2023-11-18T12:13:14;2.40;;;1.70;;
48524;SDS011;34316;51.514;-0.178;2023-11-18T12:15:54;2.30;;;1.40;;
48524;SDS011;34316;51.514;-0.178;2023-11-18T12:20:00;2.60;;;1.70;;
48524;SDS011;34316;51.514;-0.178;2023-11-18T12:22:08;3.53;;;1.80;;
48524;SDS011;34316;51.514;-0.178;2023-11-18T12:24:15;4.05;;;1.85;;
48524;SDS011;34316;51.514;-0.178;2023-11-18T12:28:51;3.35;;;2.00;;
48524;SDS011;34316;51.514;-0.178;2023-11-18T12:33:07;3.22;;;2.00;;
48524;SDS011;34316;51.514;-0.178;2023-11-18T12:35:25;2.47;;;1.40;;
48524;SDS011;34316;51.514;-0.178;2023-11-18T12:41:55;3.30;;;1.58;;
48524;SDS011;34316;51.514;-0.178;2023-11-18T12:48:57;1.95;;;1.35;;
48524;SDS011;34316;51.514;-0.178;2023-11-18T12:51:02;2.42;;;1.70;;